ANA1893 RJTT-RJTH
Flight info
| Callsign | ANA1893 |
|---|---|
| Flight time | 0h 35m |
| Altitude | 22000 |
| Route | VAMOS XAC/N0393F210 V18 SANGO |
| Aircraft | A320/M-SDE3FGHIRWY/LB1 |
Departure
| Time | 2026-05-08 03:32 |
|---|---|
| Airport | Tokyo Haneda International Airport (RJTT) |
Arrival
| Time | 2026-05-08 04:07 |
|---|---|
| Airport | Hachijojima Airport (RJTH) |
| Time | Latitude | Longitude | Altitude | Speed | Heading |
|---|---|---|---|---|---|
| 2026-05-08 03:08 | 35.55207 | 139.78902 | 28 ft | 0 kts | 240° |
| 2026-05-08 03:22 | 35.55214 | 139.78916 | 27 ft | 2 kts | 240° |
| 2026-05-08 03:22 | 35.55220 | 139.78929 | 27 ft | 2 kts | 239° |
| 2026-05-08 03:22 | 35.55226 | 139.78941 | 27 ft | 2 kts | 239° |
| 2026-05-08 03:22 | 35.55231 | 139.78953 | 27 ft | 2 kts | 240° |
| 2026-05-08 03:23 | 35.55239 | 139.78971 | 27 ft | 2 kts | 250° |
| 2026-05-08 03:23 | 35.55243 | 139.78990 | 27 ft | 2 kts | 275° |
| 2026-05-08 03:23 | 35.55240 | 139.79006 | 27 ft | 1 kts | 321° |
| 2026-05-08 03:23 | 35.55239 | 139.79008 | 28 ft | 0 kts | 328° |
| 2026-05-08 03:25 | 35.55256 | 139.78995 | 28 ft | 11 kts | 328° |
| 2026-05-08 03:25 | 35.55324 | 139.78946 | 27 ft | 11 kts | 331° |
| 2026-05-08 03:25 | 35.55393 | 139.78941 | 28 ft | 9 kts | 27° |
| 2026-05-08 03:25 | 35.55432 | 139.79001 | 27 ft | 9 kts | 58° |
| 2026-05-08 03:26 | 35.55476 | 139.79045 | 29 ft | 8 kts | 14° |
| 2026-05-08 03:26 | 35.55526 | 139.79025 | 29 ft | 7 kts | 332° |
| 2026-05-08 03:26 | 35.55565 | 139.78999 | 27 ft | 8 kts | 331° |
| 2026-05-08 03:26 | 35.55665 | 139.78926 | 26 ft | 20 kts | 329° |
| 2026-05-08 03:27 | 35.55793 | 139.78838 | 24 ft | 22 kts | 329° |
| 2026-05-08 03:27 | 35.55936 | 139.78734 | 23 ft | 25 kts | 329° |
| 2026-05-08 03:27 | 35.56096 | 139.78620 | 23 ft | 28 kts | 329° |
| 2026-05-08 03:27 | 35.56256 | 139.78505 | 25 ft | 21 kts | 330° |
| 2026-05-08 03:28 | 35.56335 | 139.78384 | 25 ft | 15 kts | 248° |
| 2026-05-08 03:28 | 35.56278 | 139.78267 | 26 ft | 18 kts | 242° |
| 2026-05-08 03:28 | 35.56203 | 139.78094 | 25 ft | 24 kts | 240° |
| 2026-05-08 03:28 | 35.56119 | 139.77914 | 25 ft | 24 kts | 239° |
| 2026-05-08 03:29 | 35.56033 | 139.77732 | 24 ft | 25 kts | 239° |
| 2026-05-08 03:29 | 35.55944 | 139.77547 | 24 ft | 25 kts | 239° |
| 2026-05-08 03:29 | 35.55859 | 139.77366 | 25 ft | 23 kts | 238° |
| 2026-05-08 03:29 | 35.55743 | 139.77260 | 22 ft | 9 kts | 219° |
| 2026-05-08 03:30 | 35.55718 | 139.77235 | 22 ft | 0 kts | 218° |
| 2026-05-08 03:30 | 35.55656 | 139.77183 | 24 ft | 9 kts | 206° |
| 2026-05-08 03:31 | 35.55578 | 139.77205 | 24 ft | 5 kts | 149° |
| 2026-05-08 03:31 | 35.54769 | 139.77779 | 22 ft | 129 kts | 149° |
| 2026-05-08 03:32 | 35.53866 | 139.78415 | 213 ft | 157 kts | 146° |
| 2026-05-08 03:32 | 35.52919 | 139.79055 | 819 ft | 154 kts | 154° |
| 2026-05-08 03:32 | 35.51987 | 139.79712 | 1382 ft | 154 kts | 155° |
| 2026-05-08 03:32 | 35.51049 | 139.80382 | 1844 ft | 162 kts | 156° |
| 2026-05-08 03:33 | 35.50005 | 139.81118 | 2045 ft | 183 kts | 155° |
| 2026-05-08 03:33 | 35.48833 | 139.81944 | 2175 ft | 205 kts | 156° |
| 2026-05-08 03:33 | 35.47547 | 139.82853 | 2331 ft | 222 kts | 155° |
| 2026-05-08 03:33 | 35.46164 | 139.83835 | 2579 ft | 235 kts | 155° |
| 2026-05-08 03:34 | 35.44725 | 139.84864 | 2923 ft | 246 kts | 154° |
| 2026-05-08 03:34 | 35.43121 | 139.85633 | 3233 ft | 249 kts | 179° |
| 2026-05-08 03:34 | 35.41439 | 139.85316 | 3687 ft | 246 kts | 204° |
| 2026-05-08 03:34 | 35.39823 | 139.84577 | 4267 ft | 249 kts | 203° |
| 2026-05-08 03:35 | 35.38197 | 139.83865 | 4882 ft | 252 kts | 203° |
| 2026-05-08 03:35 | 35.36513 | 139.83139 | 5482 ft | 255 kts | 202° |
| 2026-05-08 03:35 | 35.34825 | 139.82415 | 6112 ft | 258 kts | 203° |
| 2026-05-08 03:35 | 35.33126 | 139.81685 | 6738 ft | 259 kts | 204° |
| 2026-05-08 03:36 | 35.31430 | 139.80955 | 7286 ft | 258 kts | 204° |
| 2026-05-08 03:36 | 35.29731 | 139.80225 | 7786 ft | 259 kts | 204° |
| 2026-05-08 03:36 | 35.28031 | 139.79495 | 8278 ft | 259 kts | 204° |
| 2026-05-08 03:36 | 35.26352 | 139.78772 | 8746 ft | 259 kts | 204° |
| 2026-05-08 03:37 | 35.24646 | 139.78038 | 8976 ft | 260 kts | 204° |
| 2026-05-08 03:37 | 35.22936 | 139.77302 | 9016 ft | 260 kts | 204° |
| 2026-05-08 03:37 | 35.21233 | 139.76567 | 9019 ft | 259 kts | 204° |
| 2026-05-08 03:37 | 35.19609 | 139.75648 | 9023 ft | 256 kts | 214° |
| 2026-05-08 03:38 | 35.18075 | 139.74548 | 9024 ft | 256 kts | 214° |
| 2026-05-08 03:38 | 35.16539 | 139.73451 | 9025 ft | 256 kts | 214° |
| 2026-05-08 03:38 | 35.15003 | 139.72356 | 9030 ft | 256 kts | 214° |
| 2026-05-08 03:38 | 35.13467 | 139.71259 | 9030 ft | 256 kts | 214° |
| 2026-05-08 03:39 | 35.11931 | 139.70167 | 9034 ft | 256 kts | 213° |
| 2026-05-08 03:39 | 35.10391 | 139.69074 | 9033 ft | 256 kts | 213° |
| 2026-05-08 03:39 | 35.08849 | 139.67980 | 9164 ft | 258 kts | 213° |
| 2026-05-08 03:39 | 35.07297 | 139.66878 | 9665 ft | 258 kts | 213° |
| 2026-05-08 03:40 | 35.05748 | 139.65779 | 10077 ft | 259 kts | 214° |
| 2026-05-08 03:40 | 35.04167 | 139.64654 | 10253 ft | 268 kts | 214° |
| 2026-05-08 03:40 | 35.02520 | 139.63484 | 10373 ft | 278 kts | 213° |
| 2026-05-08 03:40 | 35.00824 | 139.62282 | 10484 ft | 286 kts | 213° |
| 2026-05-08 03:41 | 34.99085 | 139.61051 | 10634 ft | 291 kts | 213° |
| 2026-05-08 03:41 | 34.97327 | 139.59804 | 10866 ft | 293 kts | 213° |
| 2026-05-08 03:41 | 34.95577 | 139.58566 | 11296 ft | 284 kts | 214° |
| 2026-05-08 03:41 | 34.93938 | 139.57417 | 12030 ft | 259 kts | 214° |
| 2026-05-08 03:42 | 34.92446 | 139.56376 | 12794 ft | 236 kts | 214° |
| 2026-05-08 03:42 | 34.90987 | 139.55345 | 13145 ft | 253 kts | 215° |
| 2026-05-08 03:42 | 34.89396 | 139.54207 | 13306 ft | 277 kts | 214° |
| 2026-05-08 03:42 | 34.87668 | 139.52969 | 13442 ft | 299 kts | 214° |
| 2026-05-08 03:43 | 34.85828 | 139.51655 | 13818 ft | 312 kts | 214° |
| 2026-05-08 03:43 | 34.83938 | 139.50319 | 14387 ft | 316 kts | 214° |
| 2026-05-08 03:43 | 34.82024 | 139.48977 | 15003 ft | 319 kts | 214° |
| 2026-05-08 03:43 | 34.80089 | 139.47621 | 15610 ft | 322 kts | 214° |
| 2026-05-08 03:44 | 34.78134 | 139.46255 | 16215 ft | 326 kts | 214° |
| 2026-05-08 03:44 | 34.76161 | 139.44874 | 16814 ft | 329 kts | 214° |
| 2026-05-08 03:44 | 34.74166 | 139.43481 | 17416 ft | 332 kts | 213° |
| 2026-05-08 03:44 | 34.71996 | 139.42415 | 17985 ft | 343 kts | 200° |
| 2026-05-08 03:45 | 34.69592 | 139.42001 | 18479 ft | 357 kts | 187° |
| 2026-05-08 03:45 | 34.67075 | 139.42319 | 18979 ft | 371 kts | 177° |
| 2026-05-08 03:45 | 34.64530 | 139.42912 | 19482 ft | 374 kts | 177° |
| 2026-05-08 03:45 | 34.61965 | 139.43516 | 19991 ft | 377 kts | 177° |
| 2026-05-08 03:46 | 34.59371 | 139.44130 | 20500 ft | 380 kts | 177° |
| 2026-05-08 03:46 | 34.56761 | 139.44742 | 21001 ft | 384 kts | 177° |
| 2026-05-08 03:46 | 34.54128 | 139.45351 | 21490 ft | 387 kts | 177° |
| 2026-05-08 03:46 | 34.51470 | 139.45960 | 21773 ft | 389 kts | 177° |
| 2026-05-08 03:47 | 34.48801 | 139.46573 | 21838 ft | 390 kts | 177° |
| 2026-05-08 03:47 | 34.46168 | 139.47180 | 21839 ft | 391 kts | 177° |
| 2026-05-08 03:47 | 34.43494 | 139.47798 | 21849 ft | 391 kts | 177° |
| 2026-05-08 03:47 | 34.40824 | 139.48413 | 21848 ft | 391 kts | 177° |
| 2026-05-08 03:48 | 34.38155 | 139.49029 | 21850 ft | 390 kts | 177° |
| 2026-05-08 03:48 | 34.35483 | 139.49643 | 21849 ft | 390 kts | 177° |
| 2026-05-08 03:48 | 34.32818 | 139.50255 | 21851 ft | 390 kts | 177° |
| 2026-05-08 03:48 | 34.30147 | 139.50868 | 21853 ft | 390 kts | 178° |
| 2026-05-08 03:49 | 34.27479 | 139.51481 | 21851 ft | 390 kts | 178° |
| 2026-05-08 03:49 | 34.24814 | 139.52091 | 21850 ft | 390 kts | 178° |
| 2026-05-08 03:49 | 34.22149 | 139.52699 | 21848 ft | 390 kts | 178° |
| 2026-05-08 03:49 | 34.19483 | 139.53308 | 21847 ft | 390 kts | 178° |
| 2026-05-08 03:50 | 34.16814 | 139.53913 | 21843 ft | 390 kts | 178° |
| 2026-05-08 03:50 | 34.14184 | 139.54510 | 21842 ft | 390 kts | 178° |
| 2026-05-08 03:50 | 34.11517 | 139.55116 | 21843 ft | 390 kts | 178° |
| 2026-05-08 03:50 | 34.08852 | 139.55722 | 21842 ft | 389 kts | 178° |
| 2026-05-08 03:51 | 34.06206 | 139.56539 | 21845 ft | 398 kts | 169° |
| 2026-05-08 03:51 | 34.03614 | 139.57737 | 21420 ft | 399 kts | 167° |
| 2026-05-08 03:51 | 34.01026 | 139.58953 | 20838 ft | 398 kts | 167° |
| 2026-05-08 03:51 | 33.98458 | 139.60161 | 20331 ft | 395 kts | 168° |
| 2026-05-08 03:52 | 33.96769 | 139.60954 | 20020 ft | 392 kts | 168° |
| 2026-05-08 03:52 | 33.94235 | 139.62139 | 19559 ft | 389 kts | 168° |
| 2026-05-08 03:52 | 33.91727 | 139.63310 | 19107 ft | 385 kts | 168° |
| 2026-05-08 03:52 | 33.89243 | 139.64470 | 18660 ft | 381 kts | 168° |
| 2026-05-08 03:53 | 33.86781 | 139.65615 | 18228 ft | 377 kts | 168° |
| 2026-05-08 03:53 | 33.84343 | 139.66748 | 17718 ft | 374 kts | 168° |
| 2026-05-08 03:53 | 33.81922 | 139.67873 | 17194 ft | 372 kts | 168° |
| 2026-05-08 03:53 | 33.79518 | 139.68986 | 16676 ft | 369 kts | 168° |
| 2026-05-08 03:54 | 33.77129 | 139.70090 | 16149 ft | 366 kts | 167° |
| 2026-05-08 03:54 | 33.74776 | 139.71181 | 15277 ft | 361 kts | 167° |
| 2026-05-08 03:54 | 33.72467 | 139.72254 | 14773 ft | 351 kts | 167° |
| 2026-05-08 03:54 | 33.70198 | 139.73306 | 14338 ft | 349 kts | 166° |
| 2026-05-08 03:55 | 33.67932 | 139.74356 | 13884 ft | 348 kts | 166° |
| 2026-05-08 03:55 | 33.65675 | 139.75400 | 13405 ft | 347 kts | 166° |
| 2026-05-08 03:55 | 33.63431 | 139.76435 | 12940 ft | 345 kts | 166° |
| 2026-05-08 03:55 | 33.61214 | 139.77459 | 12599 ft | 338 kts | 166° |
| 2026-05-08 03:56 | 33.59024 | 139.78470 | 12134 ft | 336 kts | 166° |
| 2026-05-08 03:56 | 33.56846 | 139.79475 | 11678 ft | 334 kts | 166° |
| 2026-05-08 03:56 | 33.54685 | 139.80467 | 11215 ft | 331 kts | 168° |
| 2026-05-08 03:56 | 33.52483 | 139.81076 | 10743 ft | 320 kts | 181° |
| 2026-05-08 03:57 | 33.50297 | 139.81093 | 10339 ft | 310 kts | 189° |
| 2026-05-08 03:57 | 33.48888 | 139.81013 | 10260 ft | 301 kts | 189° |
| 2026-05-08 03:57 | 33.48359 | 139.80984 | 10231 ft | 298 kts | 189° |
| 2026-05-08 03:57 | 33.46353 | 139.80877 | 10108 ft | 285 kts | 189° |
| 2026-05-08 03:58 | 33.44427 | 139.80776 | 9743 ft | 272 kts | 189° |
| 2026-05-08 03:58 | 33.42565 | 139.80672 | 9407 ft | 264 kts | 190° |
| 2026-05-08 03:58 | 33.40722 | 139.80570 | 9181 ft | 267 kts | 187° |
| 2026-05-08 03:58 | 33.38569 | 139.81050 | 8677 ft | 279 kts | 165° |
| 2026-05-08 03:59 | 33.36908 | 139.82332 | 8197 ft | 292 kts | 143° |
| 2026-05-08 03:59 | 33.35593 | 139.84249 | 7687 ft | 302 kts | 134° |
| 2026-05-08 03:59 | 33.34330 | 139.86256 | 7304 ft | 300 kts | 133° |
| 2026-05-08 03:59 | 33.33087 | 139.88233 | 6842 ft | 301 kts | 133° |
| 2026-05-08 04:00 | 33.31826 | 139.90236 | 6528 ft | 296 kts | 133° |
| 2026-05-08 04:00 | 33.30615 | 139.92154 | 5922 ft | 292 kts | 133° |
| 2026-05-08 04:00 | 33.29385 | 139.94069 | 5244 ft | 287 kts | 137° |
| 2026-05-08 04:00 | 33.27944 | 139.95617 | 4691 ft | 271 kts | 153° |
| 2026-05-08 04:01 | 33.26308 | 139.96630 | 4179 ft | 263 kts | 164° |
| 2026-05-08 04:01 | 33.24629 | 139.97478 | 3699 ft | 259 kts | 163° |
| 2026-05-08 04:01 | 33.22971 | 139.98325 | 3230 ft | 259 kts | 162° |
| 2026-05-08 04:01 | 33.21298 | 139.99022 | 2759 ft | 249 kts | 178° |
| 2026-05-08 04:02 | 33.19705 | 139.98768 | 2581 ft | 215 kts | 207° |
| 2026-05-08 04:02 | 33.18575 | 139.97815 | 2526 ft | 189 kts | 230° |
| 2026-05-08 04:02 | 33.17904 | 139.96544 | 2479 ft | 171 kts | 242° |
| 2026-05-08 04:02 | 33.17435 | 139.95343 | 2386 ft | 149 kts | 244° |
| 2026-05-08 04:03 | 33.17398 | 139.95244 | 2380 ft | 147 kts | 244° |
| 2026-05-08 04:03 | 33.17343 | 139.95094 | 2364 ft | 145 kts | 244° |
| 2026-05-08 04:03 | 33.16953 | 139.94032 | 2293 ft | 136 kts | 244° |
| 2026-05-08 04:04 | 33.16581 | 139.93004 | 2127 ft | 133 kts | 244° |
| 2026-05-08 04:04 | 33.16220 | 139.92003 | 2045 ft | 131 kts | 245° |
| 2026-05-08 04:04 | 33.15862 | 139.91005 | 2016 ft | 131 kts | 244° |
| 2026-05-08 04:04 | 33.15503 | 139.90003 | 2012 ft | 131 kts | 244° |
| 2026-05-08 04:05 | 33.15145 | 139.89001 | 2010 ft | 132 kts | 244° |
| 2026-05-08 04:05 | 33.14786 | 139.87999 | 1791 ft | 130 kts | 244° |
| 2026-05-08 04:05 | 33.14431 | 139.87007 | 1591 ft | 130 kts | 244° |
| 2026-05-08 04:05 | 33.14076 | 139.86016 | 1377 ft | 130 kts | 244° |
| 2026-05-08 04:06 | 33.13723 | 139.85031 | 1168 ft | 129 kts | 244° |
| 2026-05-08 04:06 | 33.13369 | 139.84042 | 983 ft | 129 kts | 244° |
| 2026-05-08 04:06 | 33.13017 | 139.83058 | 832 ft | 130 kts | 244° |
| 2026-05-08 04:06 | 33.12663 | 139.82071 | 680 ft | 129 kts | 243° |
| 2026-05-08 04:07 | 33.12306 | 139.81077 | 572 ft | 132 kts | 242° |
| 2026-05-08 04:07 | 33.11977 | 139.80062 | 401 ft | 130 kts | 246° |
| 2026-05-08 04:07 | 33.11655 | 139.79096 | 299 ft | 113 kts | 246° |
| 2026-05-08 04:07 | 33.11497 | 139.78579 | 302 ft | 30 kts | 251° |
| 2026-05-08 04:08 | 33.11455 | 139.78399 | 301 ft | 17 kts | 273° |
| 2026-05-08 04:08 | 33.11522 | 139.78336 | 299 ft | 11 kts | 348° |
| 2026-05-08 04:08 | 33.11562 | 139.78343 | 298 ft | 3 kts | 340° |
| 2026-05-08 04:08 | 33.11576 | 139.78337 | 299 ft | 1 kts | 340° |
| 2026-05-08 04:09 | 33.11586 | 139.78332 | 301 ft | 3 kts | 340° |
| 2026-05-08 04:09 | 33.11592 | 139.78330 | 300 ft | 0 kts | 340° |
| 2026-05-08 04:09 | 33.11595 | 139.78329 | 300 ft | 2 kts | 339° |
| 2026-05-08 04:09 | 33.11600 | 139.78326 | 300 ft | 0 kts | 339° |